Time;durP1;ratioP1;P1;durP2;ratioP2;P2;SDS_P1;SDS_P2;PMS_P1;PMS_P2;Temp;Humidity;BMP_temperature;BMP_pressure;BME280_temperature;BME280_humidity;BME280_pressure;Samples;Min_cycle;Max_cycle;Signal;HPM_P1;HPM_P2
2023/05/25 00:00:12;;;;;;;11.80;2.85;;;;;;;;;;5018235;28;20132;-78
2023/05/25 00:02:38;;;;;;;6.05;2.58;;;;;;;;;;5000903;28;20076;-77
2023/05/25 00:05:07;;;;;;;6.93;3.90;;;;;;;;;;5000510;28;20060;-77
2023/05/25 00:07:34;;;;;;;8.73;2.53;;;;;;;;;;5000814;28;20072;-78
2023/05/25 00:10:01;;;;;;;16.77;3.33;;;;;;;;;;5000374;28;20111;-77
2023/05/25 00:12:28;;;;;;;12.30;2.88;;;;;;;;;;4984594;28;20080;-77
2023/05/25 00:14:55;;;;;;;9.93;2.72;;;;;;;;;;5000755;28;20107;-78
2023/05/25 00:17:22;;;;;;;8.02;2.38;;;;;;;;;;4985919;28;20085;-78
2023/05/25 00:19:50;;;;;;;6.30;2.30;;;;;;;;;;4986081;28;20141;-78
2023/05/25 00:22:17;;;;;;;9.57;3.00;;;;;;;;;;4985779;28;20068;-79
2023/05/25 00:24:43;;;;;;;7.25;2.60;;;;;;;;;;4994654;28;20048;-79
2023/05/25 00:27:10;;;;;;;10.10;3.08;;;;;;;;;;5021370;28;20088;-79
2023/05/25 00:29:37;;;;;;;7.03;2.90;;;;;;;;;;5020976;28;20057;-77
2023/05/25 00:32:04;;;;;;;15.55;3.70;;;;;;;;;;5004800;28;20420;-79
2023/05/25 00:34:31;;;;;;;12.93;3.10;;;;;;;;;;5005376;28;20098;-78
2023/05/25 00:36:58;;;;;;;7.90;3.85;;;;;;;;;;5021149;28;20416;-77
2023/05/25 00:39:25;;;;;;;8.18;3.35;;;;;;;;;;5021299;28;20079;-79
2023/05/25 00:41:51;;;;;;;7.43;2.53;;;;;;;;;;5036925;28;20265;-79
2023/05/25 00:44:20;;;;;;;9.57;3.80;;;;;;;;;;5004334;28;20055;-79
2023/05/25 00:46:49;;;;;;;8.10;2.70;;;;;;;;;;5004582;28;20059;-77
2023/05/25 00:49:18;;;;;;;7.60;2.65;;;;;;;;;;5003102;28;20059;-76
2023/05/25 00:51:45;;;;;;;8.18;2.38;;;;;;;;;;5003118;28;20520;-77
2023/05/25 00:54:16;;;;;;;10.23;3.55;;;;;;;;;;5003118;28;20098;-77
2023/05/25 00:56:51;;;;;;;9.40;2.90;;;;;;;;;;5003467;28;20195;-77
2023/05/25 00:59:29;;;;;;;9.90;3.50;;;;;;;;;;5003708;28;20475;-77
2023/05/25 01:01:56;;;;;;;12.63;2.95;;;;;;;;;;5003584;28;20558;-77
2023/05/25 01:04:23;;;;;;;9.07;3.00;;;;;;;;;;5003078;28;20052;-77
2023/05/25 01:06:52;;;;;;;9.85;2.70;;;;;;;;;;5002788;28;20485;-77
2023/05/25 01:09:19;;;;;;;8.57;3.05;;;;;;;;;;5003476;28;20111;-77
2023/05/25 01:11:48;;;;;;;10.23;3.22;;;;;;;;;;5002708;28;20056;-77
2023/05/25 01:14:20;;;;;;;9.48;3.30;;;;;;;;;;5002964;28;20049;-77
2023/05/25 01:16:47;;;;;;;6.78;2.75;;;;;;;;;;5003113;28;20052;-77
2023/05/25 01:19:14;;;;;;;8.98;2.53;;;;;;;;;;5002827;28;20053;-77
2023/05/25 01:22:11;;;;;;;8.43;2.97;;;;;;;;;;5019072;28;20045;-77
2023/05/25 01:24:47;;;;;;;4.78;2.78;;;;;;;;;;5013750;28;20497;-77
2023/05/25 01:27:32;;;;;;;10.70;2.60;;;;;;;;;;5015386;28;20141;-77
2023/05/25 01:29:59;;;;;;;8.38;2.70;;;;;;;;;;5015109;28;20049;-76
2023/05/25 01:32:27;;;;;;;7.07;2.70;;;;;;;;;;4985307;28;20053;-78
2023/05/25 01:34:56;;;;;;;6.40;3.30;;;;;;;;;;4998888;28;20532;-77
2023/05/25 01:37:25;;;;;;;9.95;2.78;;;;;;;;;;4999233;28;20548;-78
2023/05/25 01:39:51;;;;;;;8.07;2.90;;;;;;;;;;5015089;28;20651;-78
2023/05/25 01:42:18;;;;;;;8.82;2.78;;;;;;;;;;4983930;28;20512;-77
2023/05/25 01:44:45;;;;;;;10.02;2.80;;;;;;;;;;5002395;28;20115;-76
2023/05/25 01:47:52;;;;;;;7.78;2.63;;;;;;;;;;5018738;28;20456;-77
2023/05/25 01:50:33;;;;;;;9.43;2.92;;;;;;;;;;5021543;28;20061;-77
2023/05/25 01:53:05;;;;;;;9.43;2.90;;;;;;;;;;5004465;28;20099;-77
2023/05/25 01:55:36;;;;;;;8.98;3.42;;;;;;;;;;5011158;28;20057;-77
2023/05/25 01:58:03;;;;;;;7.15;2.60;;;;;;;;;;4983064;28;20464;-77
2023/05/25 02:00:30;;;;;;;9.95;3.63;;;;;;;;;;4981171;28;20054;-77
2023/05/25 02:02:57;;;;;;;10.00;2.80;;;;;;;;;;5001689;28;20437;-76
2023/05/25 02:05:25;;;;;;;7.00;3.03;;;;;;;;;;5001821;28;20103;-76
2023/05/25 02:07:52;;;;;;;8.63;3.75;;;;;;;;;;5034195;28;20056;-76
2023/05/25 02:10:19;;;;;;;7.57;3.08;;;;;;;;;;5001546;28;20049;-76
2023/05/25 02:12:46;;;;;;;11.90;3.47;;;;;;;;;;5001537;28;20140;-77
2023/05/25 02:15:14;;;;;;;5.78;3.17;;;;;;;;;;5001723;28;20052;-76
2023/05/25 02:17:42;;;;;;;7.15;3.15;;;;;;;;;;5001826;28;20064;-76
2023/05/25 02:20:10;;;;;;;13.68;3.35;;;;;;;;;;5017665;28;20053;-76
2023/05/25 02:22:37;;;;;;;10.55;3.40;;;;;;;;;;5033863;28;20065;-76
2023/05/25 02:25:04;;;;;;;11.90;3.40;;;;;;;;;;4982007;28;20395;-77
2023/05/25 02:27:31;;;;;;;12.52;3.72;;;;;;;;;;4998267;28;20076;-77
2023/05/25 02:29:58;;;;;;;8.18;3.17;;;;;;;;;;4997892;28;20394;-78
2023/05/25 02:32:25;;;;;;;9.48;3.45;;;;;;;;;;4982251;28;20076;-76
2023/05/25 02:34:51;;;;;;;11.35;4.20;;;;;;;;;;4996643;28;20056;-76
2023/05/25 02:37:18;;;;;;;7.95;3.75;;;;;;;;;;4997751;28;20746;-75
2023/05/25 02:39:45;;;;;;;10.10;3.53;;;;;;;;;;5013879;28;20557;-75
2023/05/25 02:42:12;;;;;;;9.30;4.72;;;;;;;;;;4981511;28;20057;-75
2023/05/25 02:44:38;;;;;;;11.48;3.47;;;;;;;;;;4997521;28;20072;-75
2023/05/25 02:47:06;;;;;;;7.55;3.35;;;;;;;;;;5017265;28;20049;-76
2023/05/25 02:49:33;;;;;;;10.07;3.30;;;;;;;;;;5001192;28;20049;-76
2023/05/25 02:52:00;;;;;;;8.68;3.17;;;;;;;;;;5000970;28;20084;-76
2023/05/25 02:54:27;;;;;;;8.43;3.53;;;;;;;;;;5001042;28;20136;-76
2023/05/25 02:56:53;;;;;;;6.25;3.28;;;;;;;;;;5000931;28;20057;-75
2023/05/25 02:59:20;;;;;;;12.50;3.83;;;;;;;;;;5017147;28;20053;-75
2023/05/25 03:01:47;;;;;;;9.95;3.97;;;;;;;;;;5017035;28;20479;-75
2023/05/25 03:04:14;;;;;;;9.70;3.78;;;;;;;;;;5000608;28;20073;-75
2023/05/25 03:06:41;;;;;;;7.78;3.63;;;;;;;;;;5000938;28;20053;-75
2023/05/25 03:09:08;;;;;;;13.38;3.40;;;;;;;;;;5000891;28;20060;-75
2023/05/25 03:11:35;;;;;;;8.27;3.40;;;;;;;;;;5032830;28;20041;-76
2023/05/25 03:14:02;;;;;;;6.40;3.30;;;;;;;;;;4990052;28;20072;-76
2023/05/25 03:16:29;;;;;;;6.07;3.10;;;;;;;;;;4981389;28;20057;-76
2023/05/25 03:18:55;;;;;;;11.23;4.20;;;;;;;;;;4981134;28;20556;-76
2023/05/25 03:21:22;;;;;;;9.82;3.60;;;;;;;;;;4981190;28;20053;-76
2023/05/25 03:23:49;;;;;;;6.43;3.35;;;;;;;;;;5005662;28;20500;-76
2023/05/25 03:26:16;;;;;;;11.93;4.47;;;;;;;;;;5000620;28;20049;-76
2023/05/25 03:28:43;;;;;;;12.48;3.70;;;;;;;;;;5000670;28;20056;-76
2023/05/25 03:31:11;;;;;;;12.65;3.38;;;;;;;;;;5016734;28;20071;-76
2023/05/25 03:33:38;;;;;;;11.38;3.70;;;;;;;;;;4997298;28;20554;-76
2023/05/25 03:36:07;;;;;;;11.07;4.18;;;;;;;;;;4997179;28;20053;-75
2023/05/25 03:38:35;;;;;;;12.73;4.38;;;;;;;;;;4997796;28;20103;-75
2023/05/25 03:41:02;;;;;;;11.40;4.53;;;;;;;;;;5000312;28;20050;-75
2023/05/25 03:43:29;;;;;;;13.18;4.30;;;;;;;;;;5003765;28;20049;-75
2023/05/25 03:45:56;;;;;;;9.20;4.38;;;;;;;;;;4980923;28;20057;-75
2023/05/25 03:48:23;;;;;;;14.55;4.05;;;;;;;;;;4997105;28;20057;-75
2023/05/25 03:50:50;;;;;;;14.15;5.57;;;;;;;;;;5000024;28;20068;-75
2023/05/25 03:53:17;;;;;;;12.77;3.90;;;;;;;;;;5000739;28;20098;-75
2023/05/25 03:55:44;;;;;;;9.38;4.07;;;;;;;;;;5000557;28;20118;-75
2023/05/25 03:58:12;;;;;;;10.27;4.07;;;;;;;;;;5000289;28;20053;-75
2023/05/25 04:00:38;;;;;;;9.13;3.80;;;;;;;;;;5015462;28;20570;-75
2023/05/25 04:03:05;;;;;;;8.13;3.55;;;;;;;;;;5000374;28;20053;-75
2023/05/25 04:05:32;;;;;;;13.15;4.32;;;;;;;;;;5000827;28;20115;-76
2023/05/25 04:07:59;;;;;;;7.03;3.38;;;;;;;;;;5016705;28;20060;-77
2023/05/25 04:10:26;;;;;;;12.25;4.18;;;;;;;;;;5000179;28;20049;-76
2023/05/25 04:12:55;;;;;;;8.63;4.18;;;;;;;;;;4995901;28;20072;-75
2023/05/25 04:15:22;;;;;;;8.90;3.70;;;;;;;;;;4997315;28;20054;-75
2023/05/25 04:17:49;;;;;;;12.02;4.32;;;;;;;;;;4992623;28;20050;-75
2023/05/25 04:20:16;;;;;;;7.97;3.80;;;;;;;;;;5005570;28;20136;-75
2023/05/25 04:22:43;;;;;;;12.73;4.50;;;;;;;;;;4982601;28;20111;-75
2023/05/25 04:25:11;;;;;;;13.50;4.35;;;;;;;;;;4985159;28;20456;-74
2023/05/25 04:27:38;;;;;;;9.77;4.38;;;;;;;;;;4996478;28;20144;-75
2023/05/25 04:30:05;;;;;;;9.68;4.43;;;;;;;;;;5011870;28;20644;-75
2023/05/25 04:32:35;;;;;;;11.45;5.30;;;;;;;;;;5027046;28;20048;-75
2023/05/25 04:35:04;;;;;;;17.48;4.50;;;;;;;;;;5011082;28;20046;-74
2023/05/25 04:37:32;;;;;;;10.68;4.15;;;;;;;;;;5014464;28;20049;-75
2023/05/25 04:40:00;;;;;;;15.38;5.20;;;;;;;;;;5003249;28;20075;-75
2023/05/25 04:42:27;;;;;;;11.68;4.85;;;;;;;;;;5019371;28;20106;-76
2023/05/25 04:44:54;;;;;;;13.43;5.05;;;;;;;;;;4995868;28;20053;-75
2023/05/25 04:47:23;;;;;;;12.43;4.90;;;;;;;;;;4999519;28;20051;-76
2023/05/25 04:49:50;;;;;;;11.27;4.50;;;;;;;;;;4997324;28;20067;-76
2023/05/25 04:52:17;;;;;;;14.00;4.30;;;;;;;;;;4994514;28;20487;-75
2023/05/25 04:54:45;;;;;;;16.83;5.18;;;;;;;;;;4997352;28;20075;-76
2023/05/25 04:57:12;;;;;;;9.40;4.47;;;;;;;;;;5026896;28;20033;-76
2023/05/25 04:59:39;;;;;;;15.23;5.78;;;;;;;;;;5003770;28;20060;-77
2023/05/25 05:02:07;;;;;;;14.52;4.60;;;;;;;;;;5022335;28;20033;-76
2023/05/25 05:04:36;;;;;;;13.57;4.15;;;;;;;;;;5003914;28;20053;-76
2023/05/25 05:07:03;;;;;;;11.43;4.45;;;;;;;;;;5019537;28;20063;-77
2023/05/25 05:09:29;;;;;;;13.57;4.22;;;;;;;;;;5003278;28;20105;-75
2023/05/25 05:11:56;;;;;;;15.95;4.80;;;;;;;;;;5001385;28;20456;-75
2023/05/25 05:14:23;;;;;;;13.20;4.18;;;;;;;;;;5003086;28;20497;-76
2023/05/25 05:16:50;;;;;;;12.30;4.88;;;;;;;;;;5025845;28;20048;-75
2023/05/25 05:19:17;;;;;;;11.38;4.55;;;;;;;;;;5006558;28;20077;-74
2023/05/25 05:21:45;;;;;;;9.60;4.63;;;;;;;;;;5020357;28;20517;-76
2023/05/25 05:24:11;;;;;;;7.65;3.85;;;;;;;;;;5011512;28;20079;-78
2023/05/25 05:26:38;;;;;;;12.70;4.85;;;;;;;;;;5002927;28;20422;-77
2023/05/25 05:29:22;;;;;;;11.25;4.28;;;;;;;;;;5009539;28;20061;-78
2023/05/25 05:31:49;;;;;;;10.38;4.00;;;;;;;;;;5032311;28;20113;-78
2023/05/25 05:34:16;;;;;;;9.77;4.20;;;;;;;;;;5009760;28;20053;-75
2023/05/25 05:36:44;;;;;;;13.82;4.50;;;;;;;;;;5045261;28;20075;-77
2023/05/25 05:39:23;;;;;;;7.45;3.85;;;;;;;;;;5019137;28;20053;-78
2023/05/25 05:41:50;;;;;;;8.55;4.55;;;;;;;;;;5001369;28;20041;-78
2023/05/25 05:44:19;;;;;;;17.40;4.72;;;;;;;;;;4997990;28;20053;-78
2023/05/25 05:46:46;;;;;;;10.32;3.95;;;;;;;;;;5002589;28;20044;-78
2023/05/25 05:49:14;;;;;;;12.95;4.30;;;;;;;;;;5002535;28;20547;-78
2023/05/25 05:51:41;;;;;;;13.70;4.90;;;;;;;;;;5018969;28;20041;-78
2023/05/25 05:54:08;;;;;;;12.43;4.47;;;;;;;;;;5002791;28;20060;-78
2023/05/25 05:56:35;;;;;;;12.65;4.68;;;;;;;;;;5018460;28;20072;-78
2023/05/25 05:59:01;;;;;;;11.85;4.78;;;;;;;;;;5002219;28;20053;-78
2023/05/25 06:01:28;;;;;;;14.13;4.38;;;;;;;;;;5002189;28;20042;-78
2023/05/25 06:03:55;;;;;;;12.15;4.90;;;;;;;;;;5018679;28;20098;-78
2023/05/25 06:06:22;;;;;;;18.40;5.75;;;;;;;;;;4997077;28;20128;-78
2023/05/25 06:08:49;;;;;;;13.00;4.43;;;;;;;;;;4998875;28;20452;-78
2023/05/25 06:11:15;;;;;;;11.20;4.50;;;;;;;;;;4998201;28;20072;-78
2023/05/25 06:13:42;;;;;;;11.07;4.55;;;;;;;;;;4998627;28;20107;-78
2023/05/25 06:16:12;;;;;;;13.20;5.13;;;;;;;;;;4992850;28;20568;-78
2023/05/25 06:18:39;;;;;;;12.95;4.60;;;;;;;;;;4982493;28;20061;-78
2023/05/25 06:21:06;;;;;;;15.15;4.68;;;;;;;;;;4998503;28;20057;-78
2023/05/25 06:23:32;;;;;;;10.55;4.93;;;;;;;;;;4998677;28;20472;-78
2023/05/25 06:26:05;;;;;;;11.05;5.00;;;;;;;;;;4991518;28;20061;-78
2023/05/25 06:28:32;;;;;;;;;;;;;;;;;;4998934;28;20049;-78
2023/05/25 06:30:59;;;;;;;11.68;4.15;;;;;;;;;;5014712;28;19967;-78
2023/05/25 06:33:26;;;;;;;12.00;4.22;;;;;;;;;;4998742;28;20057;-78
2023/05/25 06:35:55;;;;;;;10.63;4.45;;;;;;;;;;4997907;28;20103;-78
2023/05/25 06:38:23;;;;;;;9.43;4.55;;;;;;;;;;4999018;28;20045;-79
2023/05/25 06:40:50;;;;;;;9.18;4.20;;;;;;;;;;4997900;28;20532;-78
2023/05/25 06:43:17;;;;;;;12.98;4.97;;;;;;;;;;4998193;28;20583;-78
2023/05/25 06:45:44;;;;;;;11.32;5.13;;;;;;;;;;4992458;28;20398;-78
2023/05/25 06:48:11;;;;;;;14.98;4.95;;;;;;;;;;4982576;28;20052;-78
2023/05/25 06:50:38;;;;;;;14.32;5.25;;;;;;;;;;4982275;28;20818;-79
2023/05/25 06:53:05;;;;;;;12.00;4.75;;;;;;;;;;4982604;28;20421;-79
2023/05/25 06:55:32;;;;;;;8.07;4.10;;;;;;;;;;4985448;28;20115;-79
2023/05/25 06:57:59;;;;;;;17.27;6.40;;;;;;;;;;5014769;28;20045;-79
2023/05/25 07:00:26;;;;;;;13.43;4.47;;;;;;;;;;4998369;28;20107;-79
2023/05/25 07:02:52;;;;;;;11.13;4.57;;;;;;;;;;5014568;28;20056;-79
2023/05/25 07:05:19;;;;;;;10.77;5.18;;;;;;;;;;5002386;28;20107;-80
2023/05/25 07:07:46;;;;;;;12.63;5.32;;;;;;;;;;5002971;28;20079;-80
2023/05/25 07:10:13;;;;;;;12.38;5.57;;;;;;;;;;5002293;28;20060;-80
2023/05/25 07:12:40;;;;;;;14.07;4.72;;;;;;;;;;5003042;28;20045;-80
2023/05/25 07:15:08;;;;;;;10.70;5.03;;;;;;;;;;5018374;28;20057;-79
2023/05/25 07:17:35;;;;;;;11.75;4.78;;;;;;;;;;5001879;28;20513;-79
2023/05/25 07:20:03;;;;;;;8.27;4.60;;;;;;;;;;5002177;28;20057;-79
2023/05/25 07:22:30;;;;;;;10.35;4.28;;;;;;;;;;5018198;28;20085;-79
2023/05/25 07:24:57;;;;;;;11.82;5.15;;;;;;;;;;5018130;28;20057;-79
2023/05/25 07:27:24;;;;;;;17.88;4.63;;;;;;;;;;5034885;28;20390;-79
2023/05/25 07:29:51;;;;;;;12.02;4.65;;;;;;;;;;5033173;28;20056;-80
2023/05/25 07:32:18;;;;;;;11.32;4.45;;;;;;;;;;5006501;28;20548;-79
2023/05/25 07:34:44;;;;;;;10.07;4.68;;;;;;;;;;4988443;28;20085;-79
2023/05/25 07:37:11;;;;;;;13.65;4.20;;;;;;;;;;5001912;28;20099;-80
2023/05/25 07:39:39;;;;;;;10.32;4.60;;;;;;;;;;5032082;28;20464;-80
2023/05/25 07:42:06;;;;;;;9.15;5.38;;;;;;;;;;5000659;28;20090;-77
2023/05/25 07:44:33;;;;;;;11.35;4.95;;;;;;;;;;5016248;28;20064;-78
2023/05/25 07:47:00;;;;;;;10.68;5.20;;;;;;;;;;4999326;28;20463;-77
2023/05/25 07:49:27;;;;;;;19.30;5.20;;;;;;;;;;4999611;28;20041;-77
2023/05/25 07:51:53;;;;;;;11.68;4.70;;;;;;;;;;4998790;28;20489;-76
2023/05/25 07:54:20;;;;;;;10.13;4.72;;;;;;;;;;4998823;28;20048;-76
2023/05/25 07:56:47;;;;;;;12.00;4.93;;;;;;;;;;4999267;28;20080;-76
2023/05/25 07:59:14;;;;;;;12.95;4.78;;;;;;;;;;5018535;28;20049;-76
2023/05/25 08:01:41;;;;;;;15.23;5.10;;;;;;;;;;5034770;28;20045;-77
2023/05/25 08:04:07;;;;;;;8.95;4.15;;;;;;;;;;5018749;28;20041;-76
2023/05/25 08:06:35;;;;;;;11.13;4.65;;;;;;;;;;5002753;28;20053;-76
2023/05/25 08:09:03;;;;;;;8.50;4.53;;;;;;;;;;5002724;28;20444;-76
2023/05/25 08:11:30;;;;;;;11.38;4.15;;;;;;;;;;5002488;28;20053;-76
2023/05/25 08:13:58;;;;;;;9.05;4.32;;;;;;;;;;5018507;28;20051;-76
2023/05/25 08:16:26;;;;;;;12.80;4.88;;;;;;;;;;5002868;28;20053;-77
2023/05/25 08:18:53;;;;;;;8.32;3.88;;;;;;;;;;5002137;28;20060;-77
2023/05/25 08:21:19;;;;;;;9.25;4.57;;;;;;;;;;5001976;28;20067;-77
2023/05/25 08:23:46;;;;;;;11.98;5.50;;;;;;;;;;5016262;28;20551;-77
2023/05/25 08:26:13;;;;;;;7.53;4.78;;;;;;;;;;5000855;28;20052;-77
2023/05/25 08:29:01;;;;;;;10.10;4.78;;;;;;;;;;5003731;28;20045;-78
2023/05/25 08:31:28;;;;;;;16.27;5.50;;;;;;;;;;4998714;28;20119;-78
2023/05/25 08:33:54;;;;;;;15.63;5.65;;;;;;;;;;5001913;28;20197;-78
2023/05/25 08:36:21;;;;;;;13.73;5.80;;;;;;;;;;5001725;28;20115;-78
2023/05/25 08:38:48;;;;;;;12.10;5.65;;;;;;;;;;5013233;28;20528;-78
2023/05/25 08:41:15;;;;;;;10.27;5.57;;;;;;;;;;5050945;28;20481;-78
2023/05/25 08:43:42;;;;;;;8.07;4.60;;;;;;;;;;4991306;28;20049;-79
2023/05/25 08:46:09;;;;;;;8.38;4.95;;;;;;;;;;5014458;28;20053;-80
2023/05/25 08:48:37;;;;;;;10.32;4.85;;;;;;;;;;5034392;28;20137;-79
2023/05/25 08:51:10;;;;;;;7.80;4.57;;;;;;;;;;5017750;28;20053;-80
2023/05/25 08:53:39;;;;;;;10.57;4.20;;;;;;;;;;5016022;28;20050;-80
2023/05/25 08:56:19;;;;;;;8.57;4.45;;;;;;;;;;5004056;28;20050;-85
2023/05/25 08:58:57;;;;;;;14.98;6.97;;;;;;;;;;5008269;28;20108;-79
2023/05/25 09:01:26;;;;;;;10.60;5.60;;;;;;;;;;5012219;28;20049;-79
2023/05/25 09:03:55;;;;;;;12.45;4.78;;;;;;;;;;5011365;28;20053;-80
2023/05/25 09:06:22;;;;;;;12.35;5.53;;;;;;;;;;5012218;28;20511;-79
2023/05/25 09:08:49;;;;;;;9.15;4.80;;;;;;;;;;4998306;28;20084;-79
2023/05/25 09:11:16;;;;;;;11.27;4.70;;;;;;;;;;5001778;28;20142;-79
2023/05/25 09:14:01;;;;;;;12.23;4.90;;;;;;;;;;5002319;28;20649;-79
2023/05/25 09:16:29;;;;;;;13.20;5.55;;;;;;;;;;4998330;28;20052;-79
2023/05/25 09:18:56;;;;;;;11.45;4.70;;;;;;;;;;5013263;28;20044;-79
2023/05/25 09:21:27;;;;;;;11.50;4.80;;;;;;;;;;5002429;28;20090;-79
2023/05/25 09:23:55;;;;;;;10.98;4.93;;;;;;;;;;4998979;28;20096;-78
2023/05/25 09:26:26;;;;;;;11.75;4.55;;;;;;;;;;5000714;28;20509;-79
2023/05/25 09:28:58;;;;;;;8.93;4.28;;;;;;;;;;5019608;28;20059;-80
2023/05/25 09:31:25;;;;;;;11.52;4.70;;;;;;;;;;5021150;28;20057;-81
2023/05/25 09:33:58;;;;;;;9.25;4.95;;;;;;;;;;5008139;28;20608;-81
2023/05/25 09:36:26;;;;;;;9.82;5.28;;;;;;;;;;5003745;28;20054;-79
2023/05/25 09:38:53;;;;;;;9.82;4.80;;;;;;;;;;4995762;28;20048;-80
2023/05/25 09:41:22;;;;;;;8.45;4.10;;;;;;;;;;5003146;28;20047;-77
2023/05/25 09:43:48;;;;;;;8.45;4.40;;;;;;;;;;4991369;28;20076;-81
2023/05/25 09:46:20;;;;;;;10.52;4.47;;;;;;;;;;5004246;28;20065;-80
2023/05/25 09:48:47;;;;;;;8.63;4.43;;;;;;;;;;4993895;28;20095;-80
2023/05/25 09:51:14;;;;;;;14.05;4.78;;;;;;;;;;4990910;28;20460;-80
2023/05/25 09:53:41;;;;;;;8.45;4.32;;;;;;;;;;4994520;28;20057;-79
2023/05/25 09:56:09;;;;;;;10.13;4.75;;;;;;;;;;4997864;28;20402;-79
2023/05/25 09:58:36;;;;;;;8.15;4.47;;;;;;;;;;5007889;28;20053;-79
2023/05/25 10:01:03;;;;;;;8.40;4.30;;;;;;;;;;5006517;28;20056;-80
2023/05/25 10:03:30;;;;;;;9.10;4.82;;;;;;;;;;4994782;28;20140;-80
2023/05/25 10:05:57;;;;;;;11.45;4.43;;;;;;;;;;4998147;28;20365;-79
2023/05/25 10:08:24;;;;;;;16.17;7.40;;;;;;;;;;4991384;28;20052;-80
2023/05/25 10:10:54;;;;;;;11.55;4.82;;;;;;;;;;4991739;28;20080;-79
2023/05/25 10:13:22;;;;;;;10.52;5.07;;;;;;;;;;5012469;28;20049;-80
2023/05/25 10:15:52;;;;;;;11.70;5.32;;;;;;;;;;4990916;28;20064;-80
2023/05/25 10:18:24;;;;;;;8.90;4.63;;;;;;;;;;5000137;28;20107;-80
2023/05/25 10:21:03;;;;;;;10.15;4.70;;;;;;;;;;5009709;28;20053;-80
2023/05/25 10:23:41;;;;;;;10.93;5.03;;;;;;;;;;4995993;28;20424;-80
2023/05/25 10:26:08;;;;;;;9.77;4.60;;;;;;;;;;5022340;28;20053;-80
2023/05/25 10:28:36;;;;;;;9.93;4.50;;;;;;;;;;5001671;28;20469;-80
2023/05/25 10:31:03;;;;;;;9.27;4.70;;;;;;;;;;5001258;28;20045;-79
2023/05/25 10:33:31;;;;;;;14.15;4.65;;;;;;;;;;5006978;28;20049;-80
2023/05/25 10:35:58;;;;;;;7.75;3.92;;;;;;;;;;5000306;28;20061;-80
2023/05/25 10:38:37;;;;;;;6.13;4.10;;;;;;;;;;5004178;28;20053;-80
2023/05/25 10:41:04;;;;;;;11.10;4.07;;;;;;;;;;4999331;28;20115;-80
2023/05/25 10:43:31;;;;;;;6.65;4.13;;;;;;;;;;4999622;28;20042;-80
2023/05/25 10:45:58;;;;;;;7.07;4.22;;;;;;;;;;5009009;28;20110;-78
2023/05/25 10:48:35;;;;;;;9.40;4.70;;;;;;;;;;4996748;28;20068;-80
2023/05/25 10:51:02;;;;;;;6.53;4.15;;;;;;;;;;5015417;28;20049;-79
2023/05/25 10:53:28;;;;;;;9.00;4.53;;;;;;;;;;4992572;28;20041;-79
2023/05/25 10:55:58;;;;;;;9.77;4.03;;;;;;;;;;5015006;28;20049;-78
2023/05/25 10:58:26;;;;;;;7.10;4.18;;;;;;;;;;5027292;28;20047;-80
2023/05/25 11:01:00;;;;;;;5.93;3.70;;;;;;;;;;5002337;28;20497;-77
2023/05/25 11:03:42;;;;;;;7.93;4.00;;;;;;;;;;5024134;28;20141;-77
2023/05/25 11:06:10;;;;;;;9.45;4.07;;;;;;;;;;5031180;28;20049;-77
2023/05/25 11:08:54;;;;;;;10.13;3.92;;;;;;;;;;5009694;28;20209;-76
2023/05/25 11:11:21;;;;;;;9.25;4.20;;;;;;;;;;4989785;28;20115;-76
2023/05/25 11:13:49;;;;;;;6.70;3.90;;;;;;;;;;5004678;28;20037;-76
2023/05/25 11:16:23;;;;;;;10.45;4.22;;;;;;;;;;4994905;28;20135;-77
2023/05/25 11:19:00;;;;;;;7.75;3.75;;;;;;;;;;5018793;28;20103;-77
2023/05/25 11:21:28;;;;;;;8.90;4.13;;;;;;;;;;4992698;28;20064;-75
2023/05/25 11:24:03;;;;;;;8.80;3.83;;;;;;;;;;5029167;28;20044;-77
2023/05/25 11:26:32;;;;;;;9.25;3.78;;;;;;;;;;4996938;28;20060;-75
2023/05/25 11:29:01;;;;;;;6.18;4.22;;;;;;;;;;4994405;28;20037;-76
2023/05/25 11:31:29;;;;;;;7.38;4.20;;;;;;;;;;4989607;28;20060;-75
2023/05/25 11:34:00;;;;;;;11.25;3.95;;;;;;;;;;5037427;28;20083;-74
2023/05/25 11:36:32;;;;;;;8.18;3.75;;;;;;;;;;5025482;28;20051;-74
2023/05/25 11:39:05;;;;;;;12.05;4.35;;;;;;;;;;5008747;28;20041;-75
2023/05/25 11:41:57;;;;;;;11.60;4.30;;;;;;;;;;4998732;28;20100;-75
2023/05/25 11:44:29;;;;;;;10.75;4.38;;;;;;;;;;4995409;28;20049;-75
2023/05/25 11:46:56;;;;;;;9.07;4.00;;;;;;;;;;4997513;28;20052;-75
2023/05/25 11:49:26;;;;;;;12.00;4.10;;;;;;;;;;5003937;28;20063;-75
2023/05/25 11:51:55;;;;;;;9.32;4.00;;;;;;;;;;5020544;28;20421;-75
2023/05/25 11:54:26;;;;;;;5.85;3.97;;;;;;;;;;5004214;28;20110;-76
2023/05/25 11:56:58;;;;;;;9.13;4.20;;;;;;;;;;5003941;28;20057;-75
2023/05/25 11:59:26;;;;;;;8.25;3.85;;;;;;;;;;5005115;28;20144;-75
2023/05/25 12:02:00;;;;;;;8.82;4.03;;;;;;;;;;5005469;28;20053;-75
2023/05/25 12:04:28;;;;;;;9.10;4.05;;;;;;;;;;5016635;28;20417;-75
2023/05/25 12:07:05;;;;;;;8.60;4.38;;;;;;;;;;5002468;28;20502;-75
2023/05/25 12:09:33;;;;;;;10.07;4.20;;;;;;;;;;5000539;28;20073;-75
2023/05/25 12:12:02;;;;;;;7.50;3.92;;;;;;;;;;4994755;28;20052;-73
2023/05/25 12:14:29;;;;;;;8.93;3.88;;;;;;;;;;5021317;28;20106;-73
2023/05/25 12:16:56;;;;;;;10.00;3.85;;;;;;;;;;5013709;28;20652;-73
2023/05/25 12:19:23;;;;;;;7.38;4.05;;;;;;;;;;5003776;28;20057;-73
2023/05/25 12:21:50;;;;;;;9.75;3.65;;;;;;;;;;5015382;28;20072;-73
2023/05/25 12:24:18;;;;;;;9.20;4.32;;;;;;;;;;5016255;28;20044;-74
2023/05/25 12:26:56;;;;;;;9.60;4.15;;;;;;;;;;4999384;28;20124;-73
2023/05/25 12:29:26;;;;;;;9.10;3.78;;;;;;;;;;5001103;28;20053;-73
2023/05/25 12:32:04;;;;;;;10.65;4.43;;;;;;;;;;4996087;28;20106;-73
2023/05/25 12:34:33;;;;;;;11.40;3.55;;;;;;;;;;5015840;28;20056;-73
2023/05/25 12:37:00;;;;;;;8.55;3.88;;;;;;;;;;5000574;28;20090;-73
2023/05/25 12:39:30;;;;;;;12.18;5.20;;;;;;;;;;5000624;28;20516;-73
2023/05/25 12:41:58;;;;;;;12.30;3.47;;;;;;;;;;5023985;28;20045;-73
2023/05/25 12:44:25;;;;;;;9.55;3.83;;;;;;;;;;4996604;28;20095;-73
2023/05/25 12:46:54;;;;;;;8.90;3.53;;;;;;;;;;5006757;28;20057;-73
2023/05/25 12:49:31;;;;;;;9.95;3.83;;;;;;;;;;4993810;28;20136;-73
2023/05/25 12:52:01;;;;;;;7.80;3.80;;;;;;;;;;5008929;28;20048;-78
2023/05/25 12:54:45;;;;;;;10.27;4.10;;;;;;;;;;5000935;28;20052;-78
2023/05/25 12:57:16;;;;;;;6.72;3.70;;;;;;;;;;5003217;28;20528;-78
2023/05/25 12:59:44;;;;;;;10.98;3.83;;;;;;;;;;4998486;28;20053;-73
2023/05/25 13:02:12;;;;;;;12.35;3.80;;;;;;;;;;4998722;28;20049;-73
2023/05/25 13:04:40;;;;;;;7.32;4.10;;;;;;;;;;5001515;28;20505;-73
2023/05/25 13:07:07;;;;;;;7.88;3.60;;;;;;;;;;5000418;28;20049;-73
2023/05/25 13:09:35;;;;;;;7.75;3.80;;;;;;;;;;4997844;28;20516;-73
2023/05/25 13:12:03;;;;;;;12.10;4.40;;;;;;;;;;4996367;28;20063;-73
2023/05/25 13:14:30;;;;;;;6.35;3.75;;;;;;;;;;5000462;28;20509;-74
2023/05/25 13:16:57;;;;;;;8.00;3.88;;;;;;;;;;4999195;28;20102;-74
2023/05/25 13:19:24;;;;;;;7.50;3.75;;;;;;;;;;4999139;28;20057;-74
2023/05/25 13:21:51;;;;;;;7.82;3.22;;;;;;;;;;4998038;28;20075;-74
2023/05/25 13:24:18;;;;;;;8.20;3.97;;;;;;;;;;4999530;28;20041;-74
2023/05/25 13:26:46;;;;;;;7.18;3.70;;;;;;;;;;5004041;28;20045;-74
2023/05/25 13:29:16;;;;;;;7.70;3.30;;;;;;;;;;5001194;28;20049;-74
2023/05/25 13:31:43;;;;;;;8.27;3.75;;;;;;;;;;4995585;28;20135;-74
2023/05/25 13:34:10;;;;;;;8.40;4.15;;;;;;;;;;5002237;28;20073;-74
2023/05/25 13:36:37;;;;;;;7.40;3.15;;;;;;;;;;5000267;28;20061;-74
2023/05/25 13:39:04;;;;;;;9.90;4.07;;;;;;;;;;5009945;28;20087;-74
2023/05/25 13:41:31;;;;;;;7.75;3.40;;;;;;;;;;5008542;28;20053;-74
2023/05/25 13:43:58;;;;;;;8.18;3.70;;;;;;;;;;5025238;28;20123;-74
2023/05/25 13:46:25;;;;;;;8.40;2.92;;;;;;;;;;4997713;28;20086;-74
2023/05/25 13:48:58;;;;;;;9.80;4.15;;;;;;;;;;5010436;28;20082;-74
2023/05/25 13:51:25;;;;;;;6.45;3.53;;;;;;;;;;5021662;28;20052;-74
2023/05/25 13:53:52;;;;;;;6.32;2.92;;;;;;;;;;5019652;28;20050;-74
2023/05/25 13:56:19;;;;;;;6.68;3.75;;;;;;;;;;4999492;28;20461;-74
2023/05/25 13:58:46;;;;;;;7.30;3.67;;;;;;;;;;5012226;28;20053;-79
2023/05/25 14:01:13;;;;;;;7.22;3.13;;;;;;;;;;4998764;28;20056;-77
2023/05/25 14:03:40;;;;;;;6.93;3.10;;;;;;;;;;4999275;28;20049;-77
2023/05/25 14:06:07;;;;;;;6.97;4.03;;;;;;;;;;4998215;28;20108;-81
2023/05/25 14:08:34;;;;;;;6.57;3.58;;;;;;;;;;5030025;28;20520;-79
2023/05/25 14:11:01;;;;;;;7.88;3.55;;;;;;;;;;4997740;28;20088;-77
2023/05/25 14:13:27;;;;;;;8.02;3.42;;;;;;;;;;4995147;28;20072;-77
2023/05/25 14:15:54;;;;;;;8.20;3.60;;;;;;;;;;5029226;28;20044;-77
2023/05/25 14:18:21;;;;;;;10.10;4.03;;;;;;;;;;4991373;28;20126;-77
2023/05/25 14:20:48;;;;;;;8.60;3.58;;;;;;;;;;4999398;28;20102;-77
2023/05/25 14:23:17;;;;;;;7.93;3.97;;;;;;;;;;5034959;28;20401;-77
2023/05/25 14:25:45;;;;;;;6.20;3.30;;;;;;;;;;5004079;28;20064;-76
2023/05/25 14:28:13;;;;;;;6.65;3.47;;;;;;;;;;5009859;28;20049;-76
2023/05/25 14:30:41;;;;;;;9.15;4.18;;;;;;;;;;4994003;28;20053;-75
2023/05/25 14:33:12;;;;;;;6.43;3.55;;;;;;;;;;5014430;28;20053;-75
2023/05/25 14:35:43;;;;;;;9.50;3.75;;;;;;;;;;5010933;28;20053;-77
2023/05/25 14:38:10;;;;;;;7.45;3.45;;;;;;;;;;4995791;28;20053;-77
2023/05/25 14:40:37;;;;;;;6.13;3.10;;;;;;;;;;4998023;28;20107;-76
2023/05/25 14:43:04;;;;;;;6.90;2.97;;;;;;;;;;5001043;28;20045;-76
2023/05/25 14:45:31;;;;;;;9.15;3.10;;;;;;;;;;4994179;28;20049;-76